Time;durP1;ratioP1;P1;durP2;ratioP2;P2;SDS_P1;SDS_P2;PMS_P1;PMS_P2;Temp;Humidity;BMP_temperature;BMP_pressure;BME280_temperature;BME280_humidity;BME280_pressure;Samples;Min_cycle;Max_cycle;Signal;HPM_P1;HPM_P2
2021/08/27 00:01:04;;;;;;;;;;;;;;;13.18;81.86;101708.38;5058441;28;19924;-53
2021/08/27 00:03:31;;;;;;;;;;;;;;;13.14;82.42;101705.09;5047056;28;19925;-52
2021/08/27 00:05:58;;;;;;;;;;;;;;;13.15;82.49;101704.13;5062962;28;19956;-54
2021/08/27 00:08:24;;;;;;;;;;;;;;;13.11;82.40;101710.53;5063869;28;19948;-53
2021/08/27 00:10:51;;;;;;;;;;;;;;;13.16;82.41;101713.75;5081899;28;19963;-53
2021/08/27 00:13:17;;;;;;;;;;;;;;;13.18;82.52;101711.03;5089466;28;19928;-52
2021/08/27 00:15:44;;;;;;;;;;;;;;;13.23;82.30;101706.31;5061218;28;19924;-49
2021/08/27 00:18:11;;;;;;;;;;;;;;;13.19;82.36;101704.78;5063045;28;20349;-53
2021/08/27 00:20:39;;;;;;;;;;;;;;;13.22;82.26;101693.19;5062809;28;19932;-51
2021/08/27 00:23:05;;;;;;;;;;;;;;;13.28;82.25;101700.72;5062603;28;19967;-53
2021/08/27 00:25:32;;;;;;;;;;;;;;;13.27;82.20;101702.53;5050979;28;19924;-52
2021/08/27 00:27:59;;;;;;;;;;;;;;;13.29;82.17;101698.00;5051777;28;19929;-55
2021/08/27 00:30:25;;;;;;;;;;;;;;;13.32;82.04;101707.50;5052135;28;19932;-52
2021/08/27 00:32:52;;;;;;;;;;;;;;;13.28;82.27;101696.31;5059447;28;20437;-52
2021/08/27 00:35:18;;;;;;;;;;;;;;;13.30;81.94;101702.31;5065349;28;19925;-54
2021/08/27 00:37:45;;;;;;;;;;;;;;;13.33;81.85;101696.88;5067283;28;19924;-53
2021/08/27 00:40:12;;;;;;;;;;;;;;;13.27;82.32;101699.88;5043069;28;19928;-53
2021/08/27 00:42:38;;;;;;;;;;;;;;;13.30;82.10;101697.03;5061091;28;19975;-53
2021/08/27 00:45:05;;;;;;;;;;;;;;;13.33;81.99;101698.66;5050367;28;20372;-53
2021/08/27 00:47:32;;;;;;;;;;;;;;;13.31;82.11;101696.09;5033085;28;19932;-54
2021/08/27 00:49:58;;;;;;;;;;;;;;;13.29;82.15;101698.00;5053980;28;19978;-51
2021/08/27 00:52:25;;;;;;;;;;;;;;;13.22;82.45;101704.59;5051505;28;19944;-53
2021/08/27 00:54:52;;;;;;;;;;;;;;;13.12;82.59;101703.50;5050931;28;20336;-54
2021/08/27 00:57:20;;;;;;;;;;;;;;;13.12;82.83;101698.22;5041596;28;19931;-53
2021/08/27 00:59:46;;;;;;;;;;;;;;;13.11;82.77;101701.78;5041092;28;19974;-52
2021/08/27 01:02:13;;;;;;;;;;;;;;;13.21;82.17;101688.84;5023604;28;19932;-53
2021/08/27 01:04:41;;;;;;;;;;;;;;;13.16;82.32;101679.44;5043101;28;19925;-52
2021/08/27 01:07:16;;;;;;;;;;;;;;;13.17;82.39;101678.50;5045283;28;19986;-54
2021/08/27 01:09:54;;;;;;;;;;;;;;;13.14;82.29;101673.41;5057351;28;20441;-50
2021/08/27 01:12:44;;;;;;;;;;;;;;;13.16;82.32;101673.31;5064768;28;19925;-52
2021/08/27 01:15:16;;;;;;;;;;;;;;;13.03;83.27;101673.22;5056228;28;19924;-53
2021/08/27 01:17:44;;;;;;;;;;;;;;;12.99;83.43;101682.25;5042816;28;20202;-54
2021/08/27 01:20:20;;;;;;;;;;;;;;;12.98;83.51;101683.22;5055501;28;19924;-48
2021/08/27 01:22:55;;;;;;;;;;;;;;;12.98;83.57;101689.34;5063931;28;19932;-52
2021/08/27 01:25:22;;;;;;;;;;;;;;;13.01;83.91;101680.41;5044142;28;19924;-52
2021/08/27 01:27:49;;;;;;;;;;;;;;;13.00;83.51;101687.44;5059716;28;19932;-51
2021/08/27 01:30:17;;;;;;;;;;;;;;;12.96;83.67;101682.47;5050372;28;19935;-54
2021/08/27 01:32:55;;;;;;;;;;;;;;;12.99;83.41;101679.63;5039544;28;19925;-54
2021/08/27 01:35:24;;;;;;;;;;;;;;;13.04;83.56;101679.34;5041158;28;19952;-53
2021/08/27 01:37:52;;;;;;;;;;;;;;;13.01;83.26;101685.69;5051414;28;19929;-54
2021/08/27 01:40:18;;;;;;;;;;;;;;;13.08;83.05;101672.94;5052054;28;19974;-53
2021/08/27 01:42:45;;;;;;;;;;;;;;;13.05;83.45;101675.75;5050811;28;19929;-54
2021/08/27 01:45:12;;;;;;;;;;;;;;;13.07;83.44;101674.72;5037589;28;20368;-53
2021/08/27 01:47:39;;;;;;;;;;;;;;;13.05;83.27;101683.66;5039950;28;19948;-53
2021/08/27 01:50:06;;;;;;;;;;;;;;;12.93;83.82;101678.22;5040420;28;19925;-52
2021/08/27 01:52:32;;;;;;;;;;;;;;;12.89;84.36;101681.16;5059386;28;19924;-51
2021/08/27 01:54:59;;;;;;;;;;;;;;;12.91;84.22;101682.75;5057356;28;20027;-53
2021/08/27 01:57:26;;;;;;;;;;;;;;;12.89;84.63;101683.78;5042105;28;19928;-50
2021/08/27 01:59:53;;;;;;;;;;;;;;;12.90;84.27;101681.06;5059249;28;19986;-53
2021/08/27 02:02:19;;;;;;;;;;;;;;;12.93;84.47;101682.66;5042879;28;19925;-51
2021/08/27 02:04:48;;;;;;;;;;;;;;;12.90;84.44;101691.63;5063873;28;19970;-53
2021/08/27 02:07:15;;;;;;;;;;;;;;;12.83;84.68;101687.66;5059368;28;19982;-53
2021/08/27 02:09:41;;;;;;;;;;;;;;;12.82;85.00;101686.78;5029517;28;20017;-54
2021/08/27 02:12:08;;;;;;;;;;;;;;;12.82;85.28;101691.25;5063287;28;20364;-50
2021/08/27 02:14:35;;;;;;;;;;;;;;;12.78;85.24;101684.44;5043841;28;19928;-53
2021/08/27 02:17:04;;;;;;;;;;;;;;;12.77;85.39;101688.88;5040181;28;19933;-51
2021/08/27 02:19:31;;;;;;;;;;;;;;;12.78;85.09;101695.84;5040297;28;19932;-53
2021/08/27 02:21:57;;;;;;;;;;;;;;;12.79;85.19;101694.91;5041844;28;20453;-54
2021/08/27 02:24:27;;;;;;;;;;;;;;;12.88;85.14;101692.66;5038031;28;19925;-52
2021/08/27 02:26:53;;;;;;;;;;;;;;;12.92;85.17;101696.81;5059648;28;20023;-53
2021/08/27 02:29:20;;;;;;;;;;;;;;;12.89;85.34;101697.84;5056014;28;19924;-52
2021/08/27 02:31:58;;;;;;;;;;;;;;;12.95;85.25;101699.25;5059055;28;19932;-54
2021/08/27 02:34:25;;;;;;;;;;;;;;;12.96;85.22;101699.13;5040626;28;20367;-53
2021/08/27 02:36:53;;;;;;;;;;;;;;;12.94;85.28;101695.75;5032695;28;19932;-54
2021/08/27 02:39:19;;;;;;;;;;;;;;;12.95;85.54;101700.09;5060189;28;19959;-53
2021/08/27 02:41:46;;;;;;;;;;;;;;;12.96;85.38;101700.94;5043996;28;20364;-53
2021/08/27 02:44:13;;;;;;;;;;;;;;;12.98;85.11;101705.19;5043084;28;19956;-46
2021/08/27 02:46:39;;;;;;;;;;;;;;;13.02;84.83;101706.69;5040229;28;19925;-47
2021/08/27 02:49:06;;;;;;;;;;;;;;;13.00;84.57;101715.66;5052932;28;20359;-45
2021/08/27 02:51:34;;;;;;;;;;;;;;;12.98;84.59;101702.56;5041322;28;19937;-44
2021/08/27 02:54:04;;;;;;;;;;;;;;;12.93;85.01;101704.63;5053684;28;19925;-46
2021/08/27 02:56:32;;;;;;;;;;;;;;;12.89;84.78;101705.75;5047533;28;19929;-45
2021/08/27 02:58:59;;;;;;;;;;;;;;;12.85;84.65;101702.44;5061949;28;20023;-47
2021/08/27 03:01:36;;;;;;;;;;;;;;;12.87;84.36;101712.06;5044136;28;19925;-48
2021/08/27 03:04:03;;;;;;;;;;;;;;;12.87;84.68;101707.66;5047168;28;20755;-48
2021/08/27 03:06:30;;;;;;;;;;;;;;;12.89;84.37;101712.84;5064466;28;20360;-49
2021/08/27 03:09:08;;;;;;;;;;;;;;;12.90;84.25;101707.47;5064769;28;19933;-48
2021/08/27 03:11:40;;;;;;;;;;;;;;;12.91;84.22;101714.44;5064388;28;19924;-46
2021/08/27 03:14:11;;;;;;;;;;;;;;;12.90;84.71;101714.50;5052336;28;19952;-47
2021/08/27 03:16:39;;;;;;;;;;;;;;;12.92;85.20;101716.13;5042470;28;19925;-48
2021/08/27 03:19:07;;;;;;;;;;;;;;;12.98;84.44;101705.19;5042207;28;20368;-45
2021/08/27 03:22:06;;;;;;;;;;;;;;;12.94;84.18;101706.31;5042064;28;20376;-47
2021/08/27 03:24:34;;;;;;;;;;;;;;;12.89;84.38;101708.38;5024951;28;19928;-48
2021/08/27 03:27:05;;;;;;;;;;;;;;;12.88;84.31;101709.31;5051571;28;19924;-46
2021/08/27 03:29:33;;;;;;;;;;;;;;;12.87;84.62;101709.44;5045546;28;20340;-45
2021/08/27 03:32:00;;;;;;;;;;;;;;;12.93;84.33;101717.81;5045414;28;19929;-44
2021/08/27 03:34:27;;;;;;;;;;;;;;;12.96;84.75;101714.16;5077311;28;20344;-50
2021/08/27 03:36:54;;;;;;;;;;;;;;;12.97;84.92;101714.06;5062038;28;20388;-48
2021/08/27 03:39:21;;;;;;;;;;;;;;;12.96;85.03;101714.97;5045680;28;20408;-51
2021/08/27 03:41:49;;;;;;;;;;;;;;;12.96;84.94;101714.97;5041127;28;20364;-45
2021/08/27 03:44:15;;;;;;;;;;;;;;;12.96;84.90;101703.59;5048149;28;20279;-46
2021/08/27 03:46:42;;;;;;;;;;;;;;;12.94;85.23;101714.25;5044825;28;19964;-48
2021/08/27 03:49:09;;;;;;;;;;;;;;;12.96;84.94;101717.63;5043737;28;19987;-44
2021/08/27 03:51:36;;;;;;;;;;;;;;;12.94;85.22;101722.16;5047208;28;19925;-45
2021/08/27 03:54:17;;;;;;;;;;;;;;;13.01;84.87;101725.28;5060365;28;19925;-44
2021/08/27 03:56:44;;;;;;;;;;;;;;;13.03;84.73;101715.47;5062850;28;20410;-46
2021/08/27 03:59:11;;;;;;;;;;;;;;;13.07;85.02;101721.41;5062410;28;19964;-45
2021/08/27 04:01:38;;;;;;;;;;;;;;;13.07;84.66;101714.31;5043735;28;19925;-49
2021/08/27 04:04:06;;;;;;;;;;;;;;;13.11;84.52;101715.00;5042107;28;19928;-46
2021/08/27 04:06:33;;;;;;;;;;;;;;;13.09;84.80;101715.09;5064703;28;19929;-47
2021/08/27 04:08:59;;;;;;;;;;;;;;;13.07;85.53;101722.25;5064886;28;19964;-52
2021/08/27 04:11:26;;;;;;;;;;;;;;;13.06;85.38;101712.66;5060220;28;19929;-53
2021/08/27 04:13:53;;;;;;;;;;;;;;;13.09;85.16;101715.09;5058125;28;19968;-54
2021/08/27 04:16:19;;;;;;;;;;;;;;;13.15;85.08;101703.28;5063902;28;19924;-52
2021/08/27 04:18:46;;;;;;;;;;;;;;;13.16;84.91;101715.56;5071331;28;20413;-53
2021/08/27 04:21:13;;;;;;;;;;;;;;;13.18;84.96;101716.31;5094021;28;19990;-53
2021/08/27 04:23:39;;;;;;;;;;;;;;;13.15;84.74;101717.34;5078503;28;20291;-53
2021/08/27 04:26:06;;;;;;;;;;;;;;;13.08;84.82;101717.84;5063615;28;20016;-53
2021/08/27 04:28:32;;;;;;;;;;;;;;;13.05;84.81;101721.50;5063057;28;20330;-54
2021/08/27 04:30:59;;;;;;;;;;;;;;;12.94;85.17;101716.88;5058574;28;19924;-54
2021/08/27 04:33:26;;;;;;;;;;;;;;;12.92;85.40;101723.19;5043941;28;20051;-52
2021/08/27 04:35:52;;;;;;;;;;;;;;;12.95;85.59;101723.88;5061343;28;19932;-51
2021/08/27 04:38:19;;;;;;;;;;;;;;;12.97;85.21;101723.78;5061744;28;19933;-52
2021/08/27 04:40:45;;;;;;;;;;;;;;;12.95;85.31;101723.88;5060652;28;19975;-55
2021/08/27 04:43:12;;;;;;;;;;;;;;;12.91;85.34;101727.66;5065034;28;19924;-53
2021/08/27 04:45:39;;;;;;;;;;;;;;;12.93;85.39;101725.75;5060973;28;20380;-53
2021/08/27 04:48:06;;;;;;;;;;;;;;;12.92;85.97;101729.31;5060466;28;20455;-55
2021/08/27 04:50:32;;;;;;;;;;;;;;;12.88;85.97;101724.34;5061981;28;19932;-54
2021/08/27 04:52:59;;;;;;;;;;;;;;;12.91;86.04;101722.38;5060158;28;20429;-51
2021/08/27 04:55:26;;;;;;;;;;;;;;;12.89;86.33;101729.50;5039373;28;19979;-52
2021/08/27 04:57:52;;;;;;;;;;;;;;;12.91;86.08;101729.41;5062946;28;21999;-54
2021/08/27 05:00:19;;;;;;;;;;;;;;;12.88;86.43;101732.25;5063539;28;19971;-54
2021/08/27 05:02:46;;;;;;;;;;;;;;;12.85;87.03;101728.84;5060966;28;20331;-54
2021/08/27 05:05:13;;;;;;;;;;;;;;;12.95;87.10;101731.78;5060867;28;19974;-53
2021/08/27 05:07:40;;;;;;;;;;;;;;;12.99;86.50;101735.06;5059582;28;20027;-52
2021/08/27 05:10:07;;;;;;;;;;;;;;;12.97;86.55;101734.34;5054061;28;19928;-53
2021/08/27 05:12:34;;;;;;;;;;;;;;;12.97;86.64;101743.09;5034959;28;19955;-55
2021/08/27 05:15:01;;;;;;;;;;;;;;;12.95;87.06;101745.00;5062362;28;19973;-49
2021/08/27 05:17:28;;;;;;;;;;;;;;;12.97;86.91;101742.25;5073601;28;19925;-53
2021/08/27 05:19:55;;;;;;;;;;;;;;;13.00;86.75;101747.34;5042570;28;19932;-51
2021/08/27 05:22:21;;;;;;;;;;;;;;;12.95;87.21;101736.19;5069135;28;20307;-52
2021/08/27 05:24:48;;;;;;;;;;;;;;;13.09;87.18;101736.22;5055854;28;19925;-53
2021/08/27 05:27:15;;;;;;;;;;;;;;;13.09;86.51;101730.94;5058686;28;19947;-52
2021/08/27 05:29:41;;;;;;;;;;;;;;;13.15;86.52;101727.06;5062094;28;19924;-52
2021/08/27 05:32:08;;;;;;;;;;;;;;;13.11;86.88;101736.13;5061501;28;19924;-53
2021/08/27 05:34:35;;;;;;;;;;;;;;;13.15;86.62;101735.81;5060330;28;19932;-54
2021/08/27 05:37:02;;;;;;;;;;;;;;;13.18;86.41;101742.72;5040583;28;19924;-51
2021/08/27 05:39:28;;;;;;;;;;;;;;;13.20;86.42;101743.47;5055706;28;19925;-54
2021/08/27 05:41:56;;;;;;;;;;;;;;;13.24;86.39;101738.84;5066698;28;20346;-53
2021/08/27 05:44:22;;;;;;;;;;;;;;;13.29;86.55;101745.56;5041696;28;19925;-53
2021/08/27 05:46:49;;;;;;;;;;;;;;;13.31;86.42;101748.94;5049712;28;19924;-52
2021/08/27 05:49:16;;;;;;;;;;;;;;;13.37;86.67;101755.66;5036415;28;20341;-52
2021/08/27 05:51:43;;;;;;;;;;;;;;;13.45;86.69;101750.75;5031064;28;19928;-53
2021/08/27 05:54:09;;;;;;;;;;;;;;;13.49;86.08;101756.69;5036592;28;19929;-50
2021/08/27 05:56:36;;;;;;;;;;;;;;;13.54;85.96;101757.25;5039810;28;19979;-54
2021/08/27 05:59:03;;;;;;;;;;;;;;;13.58;86.07;101758.75;5040238;28;20392;-53
2021/08/27 06:01:29;;;;;;;;;;;;;;;13.63;85.99;101755.81;5039620;28;19955;-52
2021/08/27 06:03:56;;;;;;;;;;;;;;;13.68;86.13;101767.78;5038630;28;20560;-53
2021/08/27 06:06:23;;;;;;;;;;;;;;;13.73;86.11;101758.72;5043177;28;19933;-53
2021/08/27 06:08:49;;;;;;;;;;;;;;;13.78;85.70;101764.56;5041984;28;19971;-50
2021/08/27 06:11:16;;;;;;;;;;;;;;;13.84;85.52;101766.81;5039563;28;20425;-53
2021/08/27 06:13:43;;;;;;;;;;;;;;;13.77;85.41;101753.16;5039942;28;19979;-52
2021/08/27 06:16:09;;;;;;;;;;;;;;;13.89;85.48;101767.34;5030631;28;19925;-54
2021/08/27 06:18:36;;;;;;;;;;;;;;;13.97;85.61;101772.16;5030604;28;20008;-52
2021/08/27 06:21:03;;;;;;;;;;;;;;;14.00;85.40;101770.16;5035580;28;19929;-52
2021/08/27 06:23:29;;;;;;;;;;;;;;;14.11;85.34;101766.81;5034184;28;19971;-50
2021/08/27 06:25:56;;;;;;;;;;;;;;;14.13;85.13;101770.19;5037135;28;19929;-54
2021/08/27 06:28:22;;;;;;;;;;;;;;;14.18;85.41;101783.97;5044406;28;19929;-52
2021/08/27 06:30:49;;;;;;;;;;;;;;;14.24;85.45;101782.72;5045222;28;19979;-53
2021/08/27 06:33:16;;;;;;;;;;;;;;;14.25;84.61;101781.78;5058645;28;19924;-54
2021/08/27 06:35:43;;;;;;;;;;;;;;;14.26;85.43;101770.25;5063058;28;19932;-54
2021/08/27 06:38:23;;;;;;;;;;;;;;;14.28;86.01;101765.69;5025890;28;19991;-54
2021/08/27 06:40:51;;;;;;;;;;;;;;;14.33;86.07;101768.88;5044674;28;20415;-53
2021/08/27 06:43:17;;;;;;;;;;;;;;;14.33;85.50;101760.94;5043134;28;19929;-53
2021/08/27 06:45:44;;;;;;;;;;;;;;;14.37;85.39;101767.75;5046507;28;19929;-54
2021/08/27 06:48:11;;;;;;;;;;;;;;;14.47;84.86;101761.84;5044168;28;19932;-51
2021/08/27 06:50:38;;;;;;;;;;;;;;;14.54;84.82;101766.59;5070181;28;19924;-52
2021/08/27 06:53:05;;;;;;;;;;;;;;;14.59;84.05;101760.13;5064633;28;19955;-53
2021/08/27 06:55:33;;;;;;;;;;;;;;;14.50;83.81;101766.91;5075499;28;19928;-52
2021/08/27 06:58:00;;;;;;;;;;;;;;;14.61;83.85;101764.38;5057751;28;20334;-52
2021/08/27 07:00:26;;;;;;;;;;;;;;;14.66;83.46;101761.47;5075697;28;19932;-52
2021/08/27 07:02:53;;;;;;;;;;;;;;;14.67;82.92;101761.38;5057915;28;20292;-52
2021/08/27 07:05:24;;;;;;;;;;;;;;;14.70;82.52;101762.97;5058300;28;20023;-51
2021/08/27 07:07:51;;;;;;;;;;;;;;;14.79;82.87;101764.13;5057572;28;19925;-53
2021/08/27 07:10:17;;;;;;;;;;;;;;;14.81;82.30;101760.41;5075438;28;19931;-51
2021/08/27 07:12:44;;;;;;;;;;;;;;;14.93;81.47;101757.88;5075473;28;19928;-52
2021/08/27 07:15:11;;;;;;;;;;;;;;;14.99;81.39;101757.44;5075268;28;20359;-50
2021/08/27 07:17:38;;;;;;;;;;;;;;;15.11;80.09;101755.75;5057539;28;19982;-49
2021/08/27 07:20:05;;;;;;;;;;;;;;;15.31;80.38;101757.84;5075110;28;20272;-51
2021/08/27 07:22:31;;;;;;;;;;;;;;;15.24;79.56;101756.56;5075301;28;19928;-51
2021/08/27 07:24:58;;;;;;;;;;;;;;;15.33;80.75;101758.56;5074916;28;19974;-53
2021/08/27 07:27:24;;;;;;;;;;;;;;;15.59;80.10;101766.47;5069075;28;19933;-51
2021/08/27 07:29:51;;;;;;;;;;;;;;;15.82;78.30;101764.00;5062332;28;20263;-52
2021/08/27 07:32:18;;;;;;;;;;;;;;;16.02;77.72;101757.22;5064846;28;20415;-51
2021/08/27 07:34:44;;;;;;;;;;;;;;;16.19;78.25;101763.94;5063351;28;19935;-51
2021/08/27 07:37:11;;;;;;;;;;;;;;;16.40;76.90;101764.13;5047084;28;19931;-54
2021/08/27 07:39:38;;;;;;;;;;;;;;;16.47;75.33;101764.50;5067638;28;19978;-53
2021/08/27 07:42:05;;;;;;;;;;;;;;;16.52;74.73;101760.56;5057512;28;19928;-53
2021/08/27 07:44:32;;;;;;;;;;;;;;;16.65;74.61;101771.09;5088338;28;19924;-52
2021/08/27 07:46:59;;;;;;;;;;;;;;;16.80;74.87;101773.53;5058568;28;19952;-52
2021/08/27 07:49:26;;;;;;;;;;;;;;;16.76;73.38;101767.59;5068931;28;19924;-53
2021/08/27 07:51:53;;;;;;;;;;;;;;;16.84;73.61;101772.34;5066943;28;20441;-53
2021/08/27 07:54:20;;;;;;;;;;;;;;;16.91;72.95;101770.94;5065719;28;20391;-54
2021/08/27 07:56:46;;;;;;;;;;;;;;;16.94;72.98;101773.34;5062414;28;20015;-50
2021/08/27 07:59:13;;;;;;;;;;;;;;;17.01;73.20;101779.03;5063157;28;19942;-52
2021/08/27 08:01:40;;;;;;;;;;;;;;;17.04;73.75;101782.28;5062465;28;19986;-54
2021/08/27 08:04:06;;;;;;;;;;;;;;;17.07;72.82;101773.25;5044434;28;19924;-52
2021/08/27 08:06:35;;;;;;;;;;;;;;;17.02;72.33;101770.94;5079416;28;19969;-53
2021/08/27 08:09:05;;;;;;;;;;;;;;;17.11;71.56;101776.50;5094425;28;19924;-54
2021/08/27 08:11:32;;;;;;;;;;;;;;;17.15;71.50;101770.84;5054174;28;19924;-52
2021/08/27 08:13:59;;;;;;;;;;;;;;;17.45;71.75;101773.81;5037505;28;20011;-54
2021/08/27 08:16:25;;;;;;;;;;;;;;;17.67;70.52;101775.59;5079172;28;19923;-53
2021/08/27 08:18:52;;;;;;;;;;;;;;;17.59;70.12;101770.91;5094158;28;19924;-54
2021/08/27 08:21:22;;;;;;;;;;;;;;;17.53;70.12;101776.72;5075483;28;19924;-54
2021/08/27 08:23:53;;;;;;;;;;;;;;;17.51;70.31;101776.84;5086789;28;20275;-57
2021/08/27 08:26:20;;;;;;;;;;;;;;;17.59;70.26;101776.25;5076148;28;19932;-54
2021/08/27 08:28:47;;;;;;;;;;;;;;;17.97;70.07;101764.31;5074009;28;19924;-52
2021/08/27 08:31:17;;;;;;;;;;;;;;;18.22;69.83;101772.94;5069019;28;19970;-50
2021/08/27 08:33:44;;;;;;;;;;;;;;;18.29;66.85;101766.13;5062948;28;19924;-54
2021/08/27 08:36:11;;;;;;;;;;;;;;;18.50;66.20;101762.63;5065330;28;20029;-53
2021/08/27 08:38:37;;;;;;;;;;;;;;;18.72;66.22;101757.16;5059600;28;20342;-55
2021/08/27 08:41:04;;;;;;;;;;;;;;;18.91;64.70;101761.78;5030002;28;19924;-54
2021/08/27 08:43:31;;;;;;;;;;;;;;;19.05;64.59;101757.94;5042768;28;19925;-55
2021/08/27 08:45:58;;;;;;;;;;;;;;;19.31;66.19;101752.13;5042127;28;19932;-54
2021/08/27 08:48:26;;;;;;;;;;;;;;;19.17;63.81;101755.16;5044799;28;19929;-50
2021/08/27 08:50:53;;;;;;;;;;;;;;;19.35;63.46;101753.56;5093900;28;19977;-51
2021/08/27 08:53:22;;;;;;;;;;;;;;;19.67;63.41;101757.84;5083987;28;19928;-52
2021/08/27 08:55:50;;;;;;;;;;;;;;;19.83;63.09;101753.84;5057302;28;20716;-46
2021/08/27 08:58:17;;;;;;;;;;;;;;;19.86;63.10;101757.06;5062407;28;19965;-44
2021/08/27 09:00:44;;;;;;;;;;;;;;;19.70;62.37;101754.06;5060924;28;20321;-43
2021/08/27 09:03:10;;;;;;;;;;;;;;;19.73;63.00;101753.78;5061692;28;20019;-44
2021/08/27 09:05:39;;;;;;;;;;;;;;;19.77;62.71;101741.88;5081793;28;19970;-44
2021/08/27 09:08:05;;;;;;;;;;;;;;;19.79;62.23;101734.53;5061175;28;19932;-44
2021/08/27 09:10:39;;;;;;;;;;;;;;;19.84;62.36;101739.53;5077381;28;19960;-44
2021/08/27 09:13:06;;;;;;;;;;;;;;;20.02;62.25;101737.81;5080050;28;19932;-48
2021/08/27 09:15:33;;;;;;;;;;;;;;;20.14;62.08;101743.00;5080027;28;19924;-49
2021/08/27 09:18:18;;;;;;;;;;;;;;;20.08;62.01;101742.63;5082533;28;20453;-49
2021/08/27 09:20:45;;;;;;;;;;;;;;;20.01;61.73;101744.13;5061515;28;19933;-48
2021/08/27 09:23:14;;;;;;;;;;;;;;;20.02;60.09;101743.16;5077202;28;20627;-48
2021/08/27 09:25:41;;;;;;;;;;;;;;;19.89;60.40;101740.78;5058965;28;19928;-47
2021/08/27 09:28:16;;;;;;;;;;;;;;;19.97;59.95;101732.06;5081553;28;19925;-49
2021/08/27 09:30:53;;;;;;;;;;;;;;;20.22;60.79;101737.81;5062245;28;19924;-46
2021/08/27 09:33:34;;;;;;;;;;;;;;;20.17;59.84;101742.75;5080641;28;20012;-48
2021/08/27 09:36:04;;;;;;;;;;;;;;;20.15;59.75;101736.69;5079042;28;19978;-50
2021/08/27 09:38:35;;;;;;;;;;;;;;;19.91;59.60;101743.31;5078151;28;20390;-46
2021/08/27 09:41:05;;;;;;;;;;;;;;;19.97;60.02;101745.41;5079921;28;19977;-49
2021/08/27 09:44:01;;;;;;;;;;;;;;;20.05;59.40;101732.19;5084901;28;19924;-45
2021/08/27 09:46:31;;;;;;;;;;;;;;;20.57;60.64;101744.38;5059531;28;19932;-48
2021/08/27 09:48:58;;;;;;;;;;;;;;;20.85;59.75;101739.16;5085408;28;20359;-50
2021/08/27 09:51:45;;;;;;;;;;;;;;;20.96;58.29;101741.63;5054330;28;19924;-48
2021/08/27 09:54:21;;;;;;;;;;;;;;;21.24;57.86;101729.13;5070608;28;19955;-46
2021/08/27 09:56:48;;;;;;;;;;;;;;;21.16;57.87;101738.84;5073489;28;20885;-48
2021/08/27 09:59:15;;;;;;;;;;;;;;;21.39;57.68;101731.28;5058786;28;19924;-46
2021/08/27 10:01:46;;;;;;;;;;;;;;;21.22;56.76;101725.72;5058705;28;19924;-47
2021/08/27 10:04:13;;;;;;;;;;;;;;;21.31;55.41;101728.50;5076537;28;19924;-48
2021/08/27 10:06:39;;;;;;;;;;;;;;;21.34;54.85;101723.72;5076323;28;19963;-48
2021/08/27 10:09:06;;;;;;;;;;;;;;;21.49;54.74;101717.84;5058567;28;20495;-52
2021/08/27 10:11:33;;;;;;;;;;;;;;;21.29;55.87;101707.25;5076426;28;19924;-50
2021/08/27 10:14:00;;;;;;;;;;;;;;;21.33;56.00;101711.31;5058815;28;20307;-50
2021/08/27 10:16:30;;;;;;;;;;;;;;;21.08;55.77;101724.41;5058519;28;19967;-49
2021/08/27 10:18:57;;;;;;;;;;;;;;;20.91;56.26;101736.72;5042445;28;19936;-46
2021/08/27 10:21:24;;;;;;;;;;;;;;;20.35;64.31;101753.56;5076484;28;19924;-49
2021/08/27 10:23:51;;;;;;;;;;;;;;;20.08;68.28;101752.44;5076127;28;19928;-46
2021/08/27 10:26:21;;;;;;;;;;;;;;;19.33;68.80;101757.34;5058138;28;19925;-45
2021/08/27 10:28:49;;;;;;;;;;;;;;;18.88;70.88;101758.53;5041670;28;19924;-45
2021/08/27 10:31:16;;;;;;;;;;;;;;;18.85;72.18;101756.13;5058343;28;19985;-46
2021/08/27 10:33:43;;;;;;;;;;;;;;;18.54;73.28;101762.25;5058220;28;20395;-45
2021/08/27 10:36:09;;;;;;;;;;;;;;;18.82;75.04;101753.72;5075618;28;20462;-46
2021/08/27 10:38:48;;;;;;;;;;;;;;;18.80;74.19;101751.19;5075780;28;19932;-46
2021/08/27 10:41:19;;;;;;;;;;;;;;;18.69;75.01;101743.25;5075983;28;20394;-52
2021/08/27 10:43:49;;;;;;;;;;;;;;;19.17;74.57;101745.34;5058001;28;19931;-51
2021/08/27 10:46:15;;;;;;;;;;;;;;;19.75;76.23;101735.81;5075558;28;19924;-50
2021/08/27 10:48:49;;;;;;;;;;;;;;;19.90;74.78;101738.94;5075628;28;20400;-51
2021/08/27 10:51:32;;;;;;;;;;;;;;;19.75;74.21;101739.31;5057897;28;20349;-55
2021/08/27 10:53:59;;;;;;;;;;;;;;;19.61;72.58;101739.72;5075826;28;20338;-52
2021/08/27 10:56:44;;;;;;;;;;;;;;;19.59;72.01;101734.53;5075732;28;19924;-53
2021/08/27 10:59:12;;;;;;;;;;;;;;;19.98;73.07;101728.41;5057639;28;19994;-53
2021/08/27 11:01:39;;;;;;;;;;;;;;;19.93;72.39;101733.31;5075497;28;19970;-51
2021/08/27 11:04:16;;;;;;;;;;;;;;;19.96;72.04;101735.72;5057570;28;20375;-55
2021/08/27 11:06:43;;;;;;;;;;;;;;;19.73;70.95;101735.13;5075223;28;19925;-54
2021/08/27 11:09:19;;;;;;;;;;;;;;;19.68;72.72;101724.84;5040359;28;20440;-52
2021/08/27 11:11:46;;;;;;;;;;;;;;;19.83;71.06;101725.31;5075197;28;20420;-54
2021/08/27 11:14:16;;;;;;;;;;;;;;;19.73;71.25;101725.28;5057394;28;19924;-54
2021/08/27 11:16:43;;;;;;;;;;;;;;;19.98;69.62;101720.41;5074976;28;19928;-56
2021/08/27 11:19:23;;;;;;;;;;;;;;;20.67;70.94;101731.84;5075119;28;19931;-55
2021/08/27 11:21:53;;;;;;;;;;;;;;;20.86;65.89;101717.59;5075355;28;19924;-55
2021/08/27 11:24:23;;;;;;;;;;;;;;;21.32;65.64;101709.63;5057805;28;19925;-52
2021/08/27 11:26:56;;;;;;;;;;;;;;;21.35;63.18;101711.16;5074338;28;19924;-53
2021/08/27 11:29:29;;;;;;;;;;;;;;;21.19;62.63;101706.50;5074849;28;20403;-47
2021/08/27 11:31:56;;;;;;;;;;;;;;;20.76;61.44;101709.63;5057261;28;19924;-50
2021/08/27 11:34:26;;;;;;;;;;;;;;;21.09;63.71;101710.06;5074140;28;19925;-54
2021/08/27 11:36:53;;;;;;;;;;;;;;;20.94;63.95;101700.81;5073989;28;19925;-54
2021/08/27 11:39:21;;;;;;;;;;;;;;;20.90;62.48;101699.44;5074034;28;20299;-54
2021/08/27 11:41:48;;;;;;;;;;;;;;;21.08;62.82;101707.53;5074032;28;19928;-54
2021/08/27 11:44:15;;;;;;;;;;;;;;;20.78;63.33;101704.13;5074428;28;20260;-54
2021/08/27 11:46:47;;;;;;;;;;;;;;;20.70;64.00;101709.38;5073905;28;19932;-52
2021/08/27 11:49:19;;;;;;;;;;;;;;;20.41;63.71;101705.75;5056929;28;19978;-52
2021/08/27 11:52:00;;;;;;;;;;;;;;;20.90;62.92;101713.66;5073970;28;19925;-54
2021/08/27 11:54:27;;;;;;;;;;;;;;;21.13;58.17;101701.72;5056849;28;19928;-53
2021/08/27 11:56:55;;;;;;;;;;;;;;;21.48;61.12;101698.28;5056628;28;19932;-54
2021/08/27 11:59:22;;;;;;;;;;;;;;;21.40;59.85;101701.69;5074461;28;19986;-53
2021/08/27 12:01:49;;;;;;;;;;;;;;;20.91;58.56;101691.28;5056809;28;19929;-52
2021/08/27 12:04:29;;;;;;;;;;;;;;;20.85;60.40;101702.56;5074266;28;20304;-53
2021/08/27 12:07:05;;;;;;;;;;;;;;;21.13;59.27;101699.06;5056255;28;20021;-53
2021/08/27 12:09:32;;;;;;;;;;;;;;;21.21;59.81;101701.81;5074080;28;20410;-53
2021/08/27 12:11:59;;;;;;;;;;;;;;;21.41;58.58;101695.34;5074438;28;20019;-52
2021/08/27 12:14:49;;;;;;;;;;;;;;;21.60;58.01;101682.88;5056246;28;19933;-54
2021/08/27 12:17:19;;;;;;;;;;;;;;;21.93;57.88;101688.53;5066381;28;19928;-53
2021/08/27 12:19:46;;;;;;;;;;;;;;;21.31;58.03;101688.38;5062953;28;20318;-54
2021/08/27 12:22:13;;;;;;;;;;;;;;;21.62;59.31;101694.25;5077895;28;19974;-54
2021/08/27 12:24:39;;;;;;;;;;;;;;;21.89;56.51;101687.16;5056206;28;19931;-52
2021/08/27 12:27:06;;;;;;;;;;;;;;;22.00;57.61;101691.44;5077437;28;20355;-52
2021/08/27 12:29:33;;;;;;;;;;;;;;;21.75;56.80;101677.84;5078622;28;20302;-54
2021/08/27 12:32:18;;;;;;;;;;;;;;;21.98;56.29;101688.91;5077966;28;20473;-54
2021/08/27 12:34:46;;;;;;;;;;;;;;;22.52;54.66;101694.16;5064655;28;19963;-54
2021/08/27 12:37:13;;;;;;;;;;;;;;;22.97;51.81;101678.81;5062455;28;19924;-54
2021/08/27 12:39:40;;;;;;;;;;;;;;;22.66;52.50;101675.81;5054247;28;19947;-55
2021/08/27 12:42:10;;;;;;;;;;;;;;;22.51;51.90;101679.09;5069703;28;19932;-55